Time;durP1;ratioP1;P1;durP2;ratioP2;P2;SDS_P1;SDS_P2;PMS_P1;PMS_P2;Temp;Humidity;BMP_temperature;BMP_pressure;BME280_temperature;BME280_humidity;BME280_pressure;Samples;Min_cycle;Max_cycle;Signal;HPM_P1;HPM_P2
2021/12/01 00:02:22;;;;;;;;;;;3.10;99.90;;;;;;5134650;27;19907;-77
2021/12/01 00:04:48;;;;;;;;;;;3.10;99.90;;;;;;5154038;27;19909;-77
2021/12/01 00:07:14;;;;;;;;;;;3.10;99.90;;;;;;5154449;27;19911;-77
2021/12/01 00:09:39;;;;;;;;;;;3.10;99.90;;;;;;5135784;27;19903;-77
2021/12/01 00:12:05;;;;;;;;;;;3.20;99.90;;;;;;5155184;27;20393;-76
2021/12/01 00:14:30;;;;;;;;;;;3.20;99.90;;;;;;5155191;27;20383;-76
2021/12/01 00:16:56;;;;;;;;;;;3.20;99.90;;;;;;5154831;27;20290;-76
2021/12/01 00:19:21;;;;;;;;;;;3.20;99.90;;;;;;5135340;27;20366;-76
2021/12/01 00:21:47;;;;;;;;;;;3.20;99.90;;;;;;5155184;27;19915;-77
2021/12/01 00:24:12;;;;;;;;;;;3.20;99.90;;;;;;5155123;27;19907;-77
2021/12/01 00:26:38;;;;;;;;;;;3.20;99.90;;;;;;5136429;27;19907;-76
2021/12/01 00:29:03;;;;;;;;;;;3.20;99.90;;;;;;5136734;27;19921;-76
2021/12/01 00:31:29;;;;;;;;;;;3.30;99.90;;;;;;5136605;27;19974;-76
2021/12/01 00:33:55;;;;;;;;;;;3.30;99.90;;;;;;5155131;27;20324;-77
2021/12/01 00:36:21;;;;;;;;;;;3.40;99.90;;;;;;5136538;27;19907;-77
2021/12/01 00:38:47;;;;;;;;;;;3.30;99.90;;;;;;5119991;27;20296;-77
2021/12/01 00:41:13;;;;;;;;;;;3.40;99.90;;;;;;5116772;27;19907;-77
2021/12/01 00:43:39;;;;;;;;;;;3.30;99.90;;;;;;5134612;27;20700;-77
2021/12/01 00:46:35;;;;;;;;;;;3.30;99.90;;;;;;5135251;27;19908;-77
2021/12/01 00:49:00;;;;;;;;;;;3.40;99.90;;;;;;5134187;27;19963;-76
2021/12/01 00:51:26;;;;;;;;;;;3.40;99.90;;;;;;5116547;27;19990;-77
2021/12/01 00:53:51;;;;;;;;;;;3.50;99.90;;;;;;5116202;27;20404;-76
2021/12/01 00:56:17;;;;;;;;;;;3.70;99.90;;;;;;5134351;27;20330;-77
2021/12/01 00:58:43;;;;;;;;;;;3.80;99.90;;;;;;5116765;27;20388;-77
2021/12/01 01:01:08;;;;;;;;;;;3.90;99.90;;;;;;5118267;27;19910;-76
2021/12/01 01:03:34;;;;;;;;;;;4.00;99.90;;;;;;5133388;27;19907;-77
2021/12/01 01:06:00;;;;;;;;;;;4.00;99.90;;;;;;5112407;27;19948;-77
2021/12/01 01:08:26;;;;;;;;;;;4.00;99.90;;;;;;5111893;27;20294;-76
2021/12/01 01:16:25;;;;;;;;;;;4.30;99.90;;;;;;5131050;27;20294;-78
2021/12/01 01:19:01;;;;;;;;;;;4.30;99.90;;;;;;5112152;27;20434;-76
2021/12/01 01:21:29;;;;;;;;;;;4.30;99.90;;;;;;5141003;27;19911;-77
2021/12/01 01:23:55;;;;;;;;;;;4.30;99.90;;;;;;5132800;27;19903;-77
2021/12/01 01:26:21;;;;;;;;;;;4.30;99.90;;;;;;5132344;27;19914;-77
2021/12/01 01:28:47;;;;;;;;;;;4.20;99.90;;;;;;5132425;27;20081;-78
2021/12/01 01:31:13;;;;;;;;;;;4.40;99.90;;;;;;5133073;27;20005;-77
2021/12/01 01:33:39;;;;;;;;;;;4.30;99.90;;;;;;5131910;27;19910;-77
2021/12/01 01:36:05;;;;;;;;;;;4.40;99.90;;;;;;5150882;27;19903;-77
2021/12/01 01:38:32;;;;;;;;;;;4.40;99.90;;;;;;5132387;27;20431;-77
2021/12/01 01:41:01;;;;;;;;;;;4.50;99.90;;;;;;5151499;27;19907;-76
2021/12/01 01:43:26;;;;;;;;;;;4.50;99.90;;;;;;5151131;27;19914;-77
2021/12/01 01:45:53;;;;;;;;;;;4.50;99.90;;;;;;5133197;27;19907;-77
2021/12/01 01:48:22;;;;;;;;;;;4.40;99.90;;;;;;5129058;27;20470;-77
2021/12/01 01:50:48;;;;;;;;;;;4.60;99.90;;;;;;5131253;27;19907;-77
2021/12/01 01:53:21;;;;;;;;;;;4.40;99.90;;;;;;5129595;27;19908;-77
2021/12/01 01:55:49;;;;;;;;;;;4.30;99.90;;;;;;5131524;27;19950;-77
2021/12/01 01:58:15;;;;;;;;;;;4.40;99.90;;;;;;5131196;27;19907;-78
2021/12/01 02:01:06;;;;;;;;;;;4.30;99.90;;;;;;5133298;27;20518;-77
2021/12/01 02:03:29;;;;;;;;;;;4.40;99.90;;;;;;5131512;27;19907;-77
2021/12/01 02:05:56;;;;;;;;;;;4.20;99.90;;;;;;5130914;27;19998;-76
2021/12/01 02:08:29;;;;;;;;;;;4.20;99.90;;;;;;5131087;27;20016;-77
2021/12/01 02:10:56;;;;;;;;;;;4.20;99.90;;;;;;5131142;27;19903;-77
2021/12/01 02:13:21;;;;;;;;;;;4.20;99.90;;;;;;5131213;27;19941;-77
2021/12/01 02:15:51;;;;;;;;;;;4.30;99.90;;;;;;5133932;27;19907;-77
2021/12/01 02:18:17;;;;;;;;;;;4.30;99.90;;;;;;5131161;27;19985;-77
2021/12/01 02:20:56;;;;;;;;;;;4.40;99.90;;;;;;5133933;27;19910;-77
2021/12/01 02:23:23;;;;;;;;;;;4.40;99.90;;;;;;5134281;27;19941;-77
2021/12/01 02:25:48;;;;;;;;;;;4.40;99.90;;;;;;5135402;27;19907;-77
2021/12/01 02:28:14;;;;;;;;;;;4.40;99.90;;;;;;5134298;27;19927;-76
2021/12/01 02:30:40;;;;;;;;;;;4.40;99.90;;;;;;5137805;27;19914;-78
2021/12/01 02:33:05;;;;;;;;;;;4.40;99.90;;;;;;5127948;27;20280;-77
2021/12/01 02:35:31;;;;;;;;;;;4.50;99.90;;;;;;5128699;27;19907;-77
2021/12/01 02:37:56;;;;;;;;;;;4.50;99.90;;;;;;5128844;27;20024;-77
2021/12/01 02:40:22;;;;;;;;;;;4.50;99.90;;;;;;5128372;27;20466;-77
2021/12/01 02:42:47;;;;;;;;;;;4.50;99.90;;;;;;5127157;27;19918;-77
2021/12/01 02:45:13;;;;;;;;;;;4.50;99.90;;;;;;5128656;27;20465;-76
2021/12/01 02:47:38;;;;;;;;;;;4.50;99.90;;;;;;5126371;27;20014;-78
2021/12/01 02:50:05;;;;;;;;;;;4.60;99.90;;;;;;5126254;27;19994;-77
2021/12/01 02:52:34;;;;;;;;;;;4.50;99.90;;;;;;5128614;27;19933;-78
2021/12/01 02:55:02;;;;;;;;;;;4.60;99.90;;;;;;5126610;27;19954;-77
2021/12/01 02:57:28;;;;;;;;;;;4.50;99.90;;;;;;5126493;27;19918;-77
2021/12/01 02:59:54;;;;;;;;;;;4.60;99.90;;;;;;5126965;27;19908;-77
2021/12/01 03:02:19;;;;;;;;;;;4.50;99.90;;;;;;5128401;27;20036;-77
2021/12/01 03:04:45;;;;;;;;;;;4.60;99.90;;;;;;5126928;27;20010;-77
2021/12/01 03:07:11;;;;;;;;;;;4.60;99.90;;;;;;5128764;28;19943;-78
2021/12/01 03:09:36;;;;;;;;;;;4.50;99.90;;;;;;5126936;28;19960;-78
2021/12/01 03:12:02;;;;;;;;;;;4.50;99.90;;;;;;5126950;28;20398;-78
2021/12/01 03:14:27;;;;;;;;;;;4.50;99.90;;;;;;5128740;28;19912;-77
2021/12/01 03:16:54;;;;;;;;;;;4.40;99.90;;;;;;5127728;28;19914;-77
2021/12/01 03:19:20;;;;;;;;;;;4.40;99.90;;;;;;5128122;28;19908;-78
2021/12/01 03:21:45;;;;;;;;;;;4.40;99.90;;;;;;5129023;28;19960;-77
2021/12/01 03:24:11;;;;;;;;;;;4.40;99.90;;;;;;5128488;28;19926;-77
2021/12/01 03:26:37;;;;;;;;;;;4.30;99.90;;;;;;5126682;28;20271;-77
2021/12/01 03:29:04;;;;;;;;;;;4.30;99.90;;;;;;5127204;28;19911;-76
2021/12/01 03:31:29;;;;;;;;;;;4.30;99.90;;;;;;5126461;28;20375;-77
2021/12/01 03:33:55;;;;;;;;;;;4.30;99.90;;;;;;5127387;28;19960;-77
2021/12/01 03:36:20;;;;;;;;;;;4.40;99.90;;;;;;5130431;27;20586;-76
2021/12/01 03:38:47;;;;;;;;;;;4.20;99.90;;;;;;5131995;27;20363;-77
2021/12/01 03:41:12;;;;;;;;;;;4.10;99.90;;;;;;5132463;27;20371;-76
2021/12/01 03:43:38;;;;;;;;;;;4.00;99.90;;;;;;5132456;27;19910;-76
2021/12/01 03:46:03;;;;;;;;;;;4.00;99.90;;;;;;5133045;27;19915;-76
2021/12/01 03:48:29;;;;;;;;;;;3.90;99.90;;;;;;5148886;27;19922;-77
2021/12/01 03:50:55;;;;;;;;;;;3.80;99.90;;;;;;5156579;27;19947;-77
2021/12/01 03:53:21;;;;;;;;;;;3.80;99.90;;;;;;5157939;27;19903;-77
2021/12/01 03:55:47;;;;;;;;;;;3.70;99.90;;;;;;5158268;27;20306;-76
2021/12/01 03:58:13;;;;;;;;;;;3.60;99.90;;;;;;5142825;27;19986;-77
2021/12/01 04:00:39;;;;;;;;;;;3.60;99.90;;;;;;5138475;27;20395;-76
2021/12/01 04:03:04;;;;;;;;;;;3.60;99.90;;;;;;5153500;27;19973;-76
2021/12/01 04:05:31;;;;;;;;;;;3.40;99.90;;;;;;5135386;27;19906;-76
2021/12/01 04:07:56;;;;;;;;;;;3.40;99.90;;;;;;5154041;27;19915;-76
2021/12/01 04:10:22;;;;;;;;;;;3.30;99.90;;;;;;5136296;27;20006;-77
2021/12/01 04:12:48;;;;;;;;;;;3.30;99.90;;;;;;5137187;27;19997;-77
2021/12/01 04:15:14;;;;;;;;;;;3.20;99.90;;;;;;5135959;27;19906;-76
2021/12/01 04:17:41;;;;;;;;;;;3.20;99.90;;;;;;5154675;27;19907;-77
2021/12/01 04:20:07;;;;;;;;;;;3.20;99.90;;;;;;5136580;27;19933;-77
2021/12/01 04:22:33;;;;;;;;;;;3.20;99.90;;;;;;5156213;27;19991;-77
2021/12/01 04:24:58;;;;;;;;;;;3.20;99.90;;;;;;5156090;27;19934;-77
2021/12/01 04:27:24;;;;;;;;;;;3.20;99.90;;;;;;5155042;27;19917;-77
2021/12/01 04:29:49;;;;;;;;;;;3.20;99.90;;;;;;5138059;27;19917;-76
2021/12/01 04:32:15;;;;;;;;;;;3.20;99.90;;;;;;5137166;27;19907;-77
2021/12/01 04:34:41;;;;;;;;;;;3.20;99.90;;;;;;5156644;27;19914;-77
2021/12/01 04:37:06;;;;;;;;;;;3.10;99.90;;;;;;5137596;27;19907;-77
2021/12/01 04:39:33;;;;;;;;;;;3.10;99.90;;;;;;5137827;27;19907;-76
2021/12/01 04:42:05;;;;;;;;;;;3.10;99.90;;;;;;5156612;27;20002;-76
2021/12/01 04:44:32;;;;;;;;;;;3.10;99.90;;;;;;5136908;27;19903;-77
2021/12/01 04:46:58;;;;;;;;;;;3.00;99.90;;;;;;5135342;27;19911;-77
2021/12/01 04:49:24;;;;;;;;;;;3.00;99.90;;;;;;5137560;27;19903;-76
2021/12/01 04:51:55;;;;;;;;;;;3.10;99.90;;;;;;5136833;27;19914;-76
2021/12/01 04:54:22;;;;;;;;;;;3.00;99.90;;;;;;5156017;27;19903;-76
2021/12/01 04:56:48;;;;;;;;;;;3.00;99.90;;;;;;5138445;27;19911;-76
2021/12/01 04:59:15;;;;;;;;;;;3.00;99.90;;;;;;5138033;27;20379;-77
2021/12/01 05:01:41;;;;;;;;;;;3.00;99.90;;;;;;5156822;27;19974;-77
2021/12/01 05:04:07;;;;;;;;;;;3.10;99.90;;;;;;5158312;27;19945;-78
2021/12/01 05:06:33;;;;;;;;;;;3.10;99.90;;;;;;5138126;27;20004;-77
2021/12/01 05:08:59;;;;;;;;;;;3.20;99.90;;;;;;5136755;27;19970;-77
2021/12/01 05:11:25;;;;;;;;;;;3.20;99.90;;;;;;5153888;27;19907;-77
2021/12/01 05:13:51;;;;;;;;;;;3.20;99.90;;;;;;5155499;27;20015;-77
2021/12/01 05:16:16;;;;;;;;;;;3.20;99.90;;;;;;5154999;27;19913;-77
2021/12/01 05:18:42;;;;;;;;;;;3.20;99.90;;;;;;5155801;27;19907;-76
2021/12/01 05:21:07;;;;;;;;;;;3.20;99.90;;;;;;5136413;27;19907;-77
2021/12/01 05:23:33;;;;;;;;;;;3.20;99.90;;;;;;5155409;27;20385;-76
2021/12/01 05:25:58;;;;;;;;;;;3.10;99.90;;;;;;5138446;27;19909;-77
2021/12/01 05:28:24;;;;;;;;;;;3.20;99.90;;;;;;5142110;27;20348;-77
2021/12/01 05:30:49;;;;;;;;;;;3.10;99.90;;;;;;5132871;27;19903;-77
2021/12/01 05:33:15;;;;;;;;;;;3.20;99.90;;;;;;5133428;27;19907;-77
2021/12/01 05:35:42;;;;;;;;;;;3.10;99.90;;;;;;5151470;27;20260;-77
2021/12/01 05:38:08;;;;;;;;;;;3.30;99.90;;;;;;5133843;27;20286;-76
2021/12/01 05:40:34;;;;;;;;;;;3.20;99.90;;;;;;5133355;27;19914;-76
2021/12/01 05:43:00;;;;;;;;;;;3.20;99.90;;;;;;5151990;27;20420;-77
2021/12/01 05:45:25;;;;;;;;;;;3.30;99.90;;;;;;5135593;27;20334;-77
2021/12/01 05:47:52;;;;;;;;;;;3.30;99.90;;;;;;5133128;27;19919;-77
2021/12/01 05:50:18;;;;;;;;;;;3.30;99.90;;;;;;5132409;27;20340;-76
2021/12/01 05:52:43;;;;;;;;;;;3.40;99.90;;;;;;5131671;27;19951;-77
2021/12/01 05:55:09;;;;;;;;;;;3.40;99.90;;;;;;5132541;27;19903;-77
2021/12/01 05:57:35;;;;;;;;;;;3.40;99.90;;;;;;5132136;27;20381;-77
2021/12/01 06:00:00;;;;;;;;;;;3.40;99.90;;;;;;5131993;27;19948;-77
2021/12/01 06:02:27;;;;;;;;;;;3.40;99.90;;;;;;5132006;27;19971;-76
2021/12/01 06:04:52;;;;;;;;;;;3.30;99.90;;;;;;5131990;27;19907;-76
2021/12/01 06:07:18;;;;;;;;;;;3.30;99.90;;;;;;5132796;27;19914;-76
2021/12/01 06:09:44;;;;;;;;;;;3.30;99.90;;;;;;5132490;27;19917;-76
2021/12/01 06:12:13;;;;;;;;;;;3.30;99.90;;;;;;5132657;27;19907;-76
2021/12/01 06:14:41;;;;;;;;;;;3.30;99.90;;;;;;5150458;27;19963;-77
2021/12/01 06:17:07;;;;;;;;;;;3.30;99.90;;;;;;5132641;27;19962;-74
2021/12/01 06:19:33;;;;;;;;;;;3.30;99.90;;;;;;5132396;27;19903;-77
2021/12/01 06:21:58;;;;;;;;;;;3.20;99.90;;;;;;5132496;27;19910;-77
2021/12/01 06:24:24;;;;;;;;;;;3.20;99.90;;;;;;5132110;27;20587;-76
2021/12/01 06:26:50;;;;;;;;;;;3.20;99.90;;;;;;5131321;27;19930;-76
2021/12/01 06:29:15;;;;;;;;;;;3.20;99.90;;;;;;5149576;27;19915;-76
2021/12/01 06:31:41;;;;;;;;;;;3.20;99.90;;;;;;5130613;27;19907;-76
2021/12/01 06:34:06;;;;;;;;;;;3.20;99.90;;;;;;5131991;27;19907;-75
2021/12/01 06:36:32;;;;;;;;;;;3.10;99.90;;;;;;5150738;27;19907;-77
2021/12/01 06:38:57;;;;;;;;;;;3.10;99.90;;;;;;5132418;27;19911;-77
2021/12/01 06:41:23;;;;;;;;;;;3.10;99.90;;;;;;5132274;27;20303;-76
2021/12/01 06:43:48;;;;;;;;;;;3.10;99.90;;;;;;5132381;27;19966;-77
2021/12/01 06:46:14;;;;;;;;;;;3.10;99.90;;;;;;5131844;27;19959;-76
2021/12/01 06:48:39;;;;;;;;;;;3.10;99.90;;;;;;5131859;27;19915;-77
2021/12/01 06:51:05;;;;;;;;;;;3.10;99.90;;;;;;5132684;27;19999;-77
2021/12/01 06:53:31;;;;;;;;;;;3.20;99.90;;;;;;5150524;27;19907;-76
2021/12/01 06:55:56;;;;;;;;;;;3.30;99.90;;;;;;5132207;27;19914;-77
2021/12/01 06:58:22;;;;;;;;;;;3.30;99.90;;;;;;5150370;27;19914;-76
2021/12/01 07:00:47;;;;;;;;;;;3.50;99.90;;;;;;5130565;27;19989;-77
2021/12/01 07:03:13;;;;;;;;;;;3.60;99.90;;;;;;5150335;27;19903;-77
2021/12/01 07:05:38;;;;;;;;;;;3.70;99.90;;;;;;5130914;27;20010;-77
2021/12/01 07:08:04;;;;;;;;;;;3.80;99.90;;;;;;5130355;27;19945;-77
2021/12/01 07:10:30;;;;;;;;;;;3.90;99.90;;;;;;5148776;27;20002;-77
2021/12/01 07:12:56;;;;;;;;;;;4.10;99.90;;;;;;5130800;27;20347;-77
2021/12/01 07:15:21;;;;;;;;;;;4.40;99.90;;;;;;5149679;27;19903;-77
2021/12/01 07:17:47;;;;;;;;;;;4.60;99.90;;;;;;5149818;27;19911;-77
2021/12/01 07:20:13;;;;;;;;;;;4.80;99.90;;;;;;5131313;27;19914;-77
2021/12/01 07:22:39;;;;;;;;;;;5.00;99.90;;;;;;5130905;27;20394;-77
2021/12/01 07:25:05;;;;;;;;;;;5.10;99.90;;;;;;5132731;27;19910;-76
2021/12/01 07:27:31;;;;;;;;;;;5.40;99.90;;;;;;5150242;27;19930;-76
2021/12/01 07:29:56;;;;;;;;;;;5.60;99.90;;;;;;5151032;27;19987;-77
2021/12/01 07:32:22;;;;;;;;;;;5.70;99.90;;;;;;5133206;27;19903;-77
2021/12/01 07:34:47;;;;;;;;;;;5.80;99.90;;;;;;5151521;27;19911;-77
2021/12/01 07:37:14;;;;;;;;;;;5.70;99.90;;;;;;5133388;27;19924;-77
2021/12/01 07:39:40;;;;;;;;;;;5.70;99.90;;;;;;5151802;27;19939;-77
2021/12/01 07:42:06;;;;;;;;;;;5.70;99.90;;;;;;5133207;27;20389;-77
2021/12/01 07:44:32;;;;;;;;;;;5.80;99.90;;;;;;5133099;27;20009;-77
2021/12/01 07:46:57;;;;;;;;;;;5.90;99.90;;;;;;5148943;27;19995;-77
2021/12/01 07:49:23;;;;;;;;;;;6.10;99.90;;;;;;5131045;27;19915;-77
2021/12/01 07:51:49;;;;;;;;;;;6.30;99.90;;;;;;5131991;27;19907;-77
2021/12/01 07:54:15;;;;;;;;;;;6.50;99.90;;;;;;5130492;27;20440;-77
2021/12/01 07:56:40;;;;;;;;;;;6.80;99.90;;;;;;5130344;27;19997;-77
2021/12/01 07:59:06;;;;;;;;;;;7.10;99.90;;;;;;5130107;27;19907;-78
2021/12/01 08:01:31;;;;;;;;;;;7.40;99.90;;;;;;5130118;27;20374;-77
2021/12/01 08:03:57;;;;;;;;;;;7.40;99.90;;;;;;5148469;27;19963;-76
2021/12/01 08:06:23;;;;;;;;;;;7.60;99.90;;;;;;5130639;27;20026;-77
2021/12/01 08:08:48;;;;;;;;;;;8.00;99.90;;;;;;5148511;27;19926;-77
2021/12/01 08:11:14;;;;;;;;;;;8.30;99.90;;;;;;5130185;27;20665;-77
2021/12/01 08:13:40;;;;;;;;;;;8.70;99.90;;;;;;5129095;27;20499;-77
2021/12/01 08:16:06;;;;;;;;;;;9.10;99.90;;;;;;5129147;27;19911;-78
2021/12/01 08:18:32;;;;;;;;;;;9.50;99.90;;;;;;5129693;27;20042;-77
2021/12/01 08:20:58;;;;;;;;;;;9.70;99.90;;;;;;5128719;27;20031;-76
2021/12/01 08:23:23;;;;;;;;;;;9.50;99.90;;;;;;5130164;27;19907;-78
2021/12/01 08:25:49;;;;;;;;;;;9.40;99.90;;;;;;5132775;27;19906;-77
2021/12/01 08:28:14;;;;;;;;;;;9.10;99.90;;;;;;5133121;27;20402;-77
2021/12/01 08:30:40;;;;;;;;;;;8.70;99.90;;;;;;5132905;27;19907;-77
2021/12/01 08:33:05;;;;;;;;;;;8.50;99.90;;;;;;5151702;27;19913;-76
2021/12/01 08:35:31;;;;;;;;;;;8.40;99.90;;;;;;5132777;27;20393;-78
2021/12/01 08:37:56;;;;;;;;;;;8.00;99.90;;;;;;5133508;27;19903;-77
2021/12/01 08:40:22;;;;;;;;;;;7.70;99.90;;;;;;5151989;27;20289;-77
2021/12/01 08:42:48;;;;;;;;;;;7.50;99.90;;;;;;5133090;27;20387;-77
2021/12/01 08:45:14;;;;;;;;;;;7.30;99.90;;;;;;5152132;27;19907;-76
2021/12/01 08:47:39;;;;;;;;;;;7.20;99.90;;;;;;5134377;27;19921;-78
2021/12/01 08:50:07;;;;;;;;;;;7.10;99.90;;;;;;5134500;27;19913;-75
2021/12/01 08:52:33;;;;;;;;;;;7.00;99.90;;;;;;5133564;27;20515;-74
2021/12/01 08:54:58;;;;;;;;;;;7.00;99.90;;;;;;5133472;27;19950;-77
2021/12/01 08:57:24;;;;;;;;;;;7.00;99.90;;;;;;5134096;27;19998;-76
2021/12/01 09:01:26;;;;;;;3.90;1.50;;;7.20;99.90;;;;;;5065414;28;20422;-77
2021/12/01 09:03:51;;;;;;;2.90;1.50;;;7.40;99.90;;;;;;5063491;28;20028;-77
2021/12/01 09:06:17;;;;;;;2.78;1.08;;;7.60;99.90;;;;;;5064292;28;20075;-76
2021/12/01 09:08:43;;;;;;;;;;;7.70;99.90;;;;;;5063436;28;20025;-76
2021/12/01 09:11:08;;;;;;;9.80;4.18;;;7.80;99.90;;;;;;5062960;28;19913;-77
2021/12/01 09:13:35;;;;;;;;;;;7.80;99.90;;;;;;5062693;28;20119;-76
2021/12/01 09:16:02;;;;;;;1.75;1.00;;;7.80;99.90;;;;;;5063296;28;19958;-76
2021/12/01 09:18:29;;;;;;;3.80;2.10;;;7.70;99.90;;;;;;5063726;28;20130;-76
2021/12/01 09:20:57;;;;;;;2.90;1.23;;;7.50;99.90;;;;;;5065195;28;20398;-75
2021/12/01 09:23:23;;;;;;;4.30;1.88;;;7.40;99.90;;;;;;5063322;28;20032;-76
2021/12/01 09:25:49;;;;;;;;;;;7.30;99.90;;;;;;5065798;28;20574;-77
2021/12/01 09:28:18;;;;;;;3.55;1.77;;;7.20;99.90;;;;;;5064906;28;19913;-77
2021/12/01 09:30:45;;;;;;;2.97;1.27;;;7.20;99.90;;;;;;5064789;28;20070;-76
2021/12/01 09:33:12;;;;;;;4.82;1.15;;;7.20;99.90;;;;;;5065808;28;20033;-76
2021/12/01 09:35:37;;;;;;;2.13;0.90;;;7.30;99.90;;;;;;5062909;28;20017;-77
2021/12/01 09:38:03;;;;;;;;;;;7.30;99.90;;;;;;5065417;28;20044;-77
2021/12/01 09:40:29;;;;;;;3.85;1.20;;;7.30;99.90;;;;;;5063906;28;20282;-76
2021/12/01 09:42:55;;;;;;;;;;;7.30;99.90;;;;;;5063420;28;20382;-77
2021/12/01 09:45:24;;;;;;;3.30;1.00;;;7.40;99.90;;;;;;5062935;28;19912;-77
2021/12/01 09:47:51;;;;;;;2.88;0.70;;;7.60;99.90;;;;;;5063348;28;20119;-78
2021/12/01 09:50:18;;;;;;;3.75;0.63;;;7.70;99.90;;;;;;5065615;28;20028;-77
2021/12/01 09:52:44;;;;;;;1.98;0.50;;;7.70;99.90;;;;;;5064740;28;20052;-77
2021/12/01 09:55:12;;;;;;;;;;;7.80;99.90;;;;;;5064327;28;20052;-77
2021/12/01 09:57:38;;;;;;;3.08;0.60;;;7.80;99.90;;;;;;5062608;28;19992;-76
2021/12/01 10:00:06;;;;;;;1.40;0.70;;;7.80;99.90;;;;;;5061986;28;20531;-76
2021/12/01 10:02:32;;;;;;;2.47;0.60;;;7.80;99.90;;;;;;5058285;28;20025;-76
2021/12/01 10:04:57;;;;;;;;;;;7.80;99.90;;;;;;5055557;28;20044;-77
2021/12/01 10:07:31;;;;;;;2.88;0.93;;;7.80;99.90;;;;;;5055034;28;20722;-76
2021/12/01 10:10:06;;;;;;;1.83;0.68;;;7.80;99.90;;;;;;5061180;28;20052;-76
2021/12/01 10:12:51;;;;;;;6.10;0.60;;;7.90;99.90;;;;;;5039684;28;20037;-77
2021/12/01 10:15:31;;;;;;;2.85;0.45;;;8.00;99.90;;;;;;5049052;28;20294;-76
2021/12/01 10:18:14;;;;;;;1.35;0.40;;;8.10;99.90;;;;;;5048868;28;20091;-77
2021/12/01 10:20:40;;;;;;;3.05;0.32;;;8.10;99.90;;;;;;5049667;28;20498;-76
2021/12/01 10:23:14;;;;;;;2.95;0.93;;;8.20;99.90;;;;;;5047842;28;20040;-75
2021/12/01 10:25:41;;;;;;;1.77;0.40;;;8.20;99.90;;;;;;5046466;28;20409;-77
2021/12/01 10:28:06;;;;;;;2.05;0.50;;;8.20;99.90;;;;;;5046769;28;20037;-76
2021/12/01 10:30:37;;;;;;;;;;;8.20;99.90;;;;;;5048636;28;20616;-76
2021/12/01 10:33:07;;;;;;;55.63;20.17;;;8.20;99.90;;;;;;5044896;28;20316;-76
2021/12/01 10:35:34;;;;;;;28.42;11.27;;;8.20;99.90;;;;;;5044335;28;20144;-76
2021/12/01 10:38:00;;;;;;;20.30;8.38;;;8.20;99.90;;;;;;5046805;28;20039;-76
2021/12/01 10:40:26;;;;;;;;;;;8.20;99.90;;;;;;5044544;28;20034;-76
2021/12/01 10:43:05;;;;;;;15.98;7.45;;;8.20;99.90;;;;;;5046299;28;19963;-76
2021/12/01 10:45:40;;;;;;;23.15;10.68;;;8.20;99.90;;;;;;5044185;28;20045;-76
2021/12/01 10:48:09;;;;;;;26.50;11.93;;;8.20;99.90;;;;;;5046101;28;20040;-76
2021/12/01 10:50:42;;;;;;;19.88;9.85;;;8.20;99.90;;;;;;5045713;28;20041;-76
2021/12/01 10:53:18;;;;;;;18.15;9.02;;;8.30;99.90;;;;;;5043986;28;20367;-76
2021/12/01 10:55:54;;;;;;;8.40;3.03;;;8.30;99.90;;;;;;5044911;28;20045;-77
2021/12/01 10:58:20;;;;;;;17.17;9.23;;;8.40;99.90;;;;;;5047377;28;20124;-76
2021/12/01 11:00:53;;;;;;;15.32;8.05;;;8.40;99.90;;;;;;5047560;28;20060;-76
2021/12/01 11:03:18;;;;;;;5.05;2.97;;;8.40;99.90;;;;;;5047072;28;20041;-76
2021/12/01 11:05:48;;;;;;;;;;;8.40;99.90;;;;;;5046957;28;20414;-76
2021/12/01 11:08:18;;;;;;;2.80;1.00;;;8.40;99.90;;;;;;5046543;28;19923;-76
2021/12/01 11:11:04;;;;;;;2.03;1.02;;;8.30;99.90;;;;;;5047499;28;20502;-76
2021/12/01 11:13:31;;;;;;;2.00;0.50;;;8.20;99.90;;;;;;5044141;28;20076;-75
2021/12/01 11:15:59;;;;;;;2.38;0.60;;;8.20;99.90;;;;;;5044425;28;20037;-76
2021/12/01 11:18:27;;;;;;;3.05;0.80;;;8.20;99.90;;;;;;5045442;28;20072;-76
2021/12/01 11:20:59;;;;;;;3.70;0.90;;;8.20;99.90;;;;;;5041292;28;20080;-75
2021/12/01 11:23:30;;;;;;;2.40;0.82;;;8.20;99.90;;;;;;5042501;28;20479;-76
2021/12/01 11:26:07;;;;;;;1.80;0.40;;;8.10;99.90;;;;;;5042105;28;20123;-76
2021/12/01 11:28:38;;;;;;;1.15;0.50;;;8.10;99.90;;;;;;5046908;28;20029;-76
2021/12/01 11:31:10;;;;;;;2.60;0.77;;;8.00;99.90;;;;;;5046084;28;20037;-76
2021/12/01 11:33:37;;;;;;;1.88;0.60;;;7.90;99.90;;;;;;5040697;28;20064;-76
2021/12/01 11:36:09;;;;;;;3.80;1.45;;;7.80;99.90;;;;;;5045764;28;20044;-76
2021/12/01 11:38:36;;;;;;;1.92;0.90;;;7.90;99.90;;;;;;5045063;28;20151;-77
2021/12/01 11:41:05;;;;;;;4.43;0.90;;;7.90;99.90;;;;;;5048012;28;20110;-77
2021/12/01 11:43:33;;;;;;;1.95;0.77;;;7.80;99.90;;;;;;5047923;28;20032;-76
2021/12/01 11:45:59;;;;;;;2.55;0.85;;;7.80;99.90;;;;;;5048594;28;20152;-76
2021/12/01 11:48:31;;;;;;;1.50;0.70;;;7.70;99.90;;;;;;5049821;28;20239;-77
2021/12/01 11:51:05;;;;;;;3.75;1.15;;;7.60;99.90;;;;;;5048332;28;20408;-78
2021/12/01 11:53:37;;;;;;;3.13;1.17;;;7.60;99.90;;;;;;5049507;28;20025;-77
2021/12/01 11:56:19;;;;;;;2.88;1.30;;;7.50;99.90;;;;;;5047433;28;20375;-76
2021/12/01 11:58:51;;;;;;;3.55;1.85;;;7.50;99.90;;;;;;5049174;28;20112;-76
2021/12/01 12:01:20;;;;;;;2.85;1.55;;;7.40;99.90;;;;;;5049279;28;20049;-76
2021/12/01 12:03:52;;;;;;;2.85;1.50;;;7.30;99.90;;;;;;5051126;28;20021;-76
2021/12/01 12:06:23;;;;;;;2.40;1.23;;;7.20;99.90;;;;;;5050468;28;20033;-77
2021/12/01 12:08:55;;;;;;;4.75;2.47;;;7.10;99.90;;;;;;5048884;28;20501;-77
2021/12/01 12:11:34;;;;;;;20.73;8.52;;;7.10;99.90;;;;;;5047886;28;20413;-76
2021/12/01 12:14:04;;;;;;;22.58;8.88;;;7.10;99.90;;;;;;5049451;28;20509;-76
2021/12/01 12:16:30;;;;;;;20.55;7.88;;;7.00;99.90;;;;;;5050134;28;20036;-77
2021/12/01 12:18:58;;;;;;;14.35;6.85;;;6.90;99.90;;;;;;5050842;28;20037;-77
2021/12/01 12:24:14;;;;;;;6.53;3.05;;;6.80;99.90;;;;;;5051231;28;20048;-77
2021/12/01 12:26:47;;;;;;;8.93;5.10;;;6.80;99.90;;;;;;5049756;28;20063;-77
2021/12/01 12:29:23;;;;;;;7.97;3.90;;;6.70;99.90;;;;;;5051096;28;20036;-76
2021/12/01 12:31:51;;;;;;;4.32;2.58;;;6.70;99.90;;;;;;5051514;28;20021;-76
2021/12/01 12:34:23;;;;;;;4.93;2.05;;;6.70;99.90;;;;;;5050589;28;20109;-76
2021/12/01 12:36:58;;;;;;;5.40;2.67;;;6.70;99.90;;;;;;5050007;28;20105;-76
2021/12/01 12:39:25;;;;;;;3.88;2.30;;;6.70;99.90;;;;;;5046737;28;20021;-77
2021/12/01 12:41:54;;;;;;;6.53;3.70;;;6.70;99.90;;;;;;5049230;28;20091;-77
2021/12/01 12:44:33;;;;;;;6.03;2.40;;;6.60;99.90;;;;;;5049280;28;20021;-76
2021/12/01 12:47:01;;;;;;;4.28;2.50;;;6.70;99.90;;;;;;5050002;28;20029;-77
2021/12/01 12:49:53;;;;;;;3.28;1.88;;;6.60;99.90;;;;;;5050817;28;20408;-76
2021/12/01 12:52:27;;;;;;;4.63;2.90;;;6.70;99.90;;;;;;5050400;28;20052;-77
2021/12/01 12:54:55;;;;;;;10.25;3.58;;;6.70;99.90;;;;;;5049550;28;20532;-76
2021/12/01 12:57:22;;;;;;;4.75;3.28;;;6.70;99.90;;;;;;5048822;28;20032;-77
2021/12/01 12:59:48;;;;;;;6.05;3.38;;;6.70;99.90;;;;;;5048768;28;20056;-76
2021/12/01 13:02:15;;;;;;;;;;;6.70;99.90;;;;;;5048172;28;20025;-77
2021/12/01 13:04:58;;;;;;;8.25;3.13;;;6.70;99.90;;;;;;5046996;28;19908;-77
2021/12/01 13:07:34;;;;;;;5.05;2.88;;;6.70;99.90;;;;;;5046205;28;20033;-76
2021/12/01 13:10:20;;;;;;;7.22;4.55;;;6.60;99.90;;;;;;5048550;28;20101;-77
2021/12/01 13:12:52;;;;;;;6.57;3.55;;;6.70;99.90;;;;;;5048189;28;20032;-77
2021/12/01 13:15:39;;;;;;;9.90;4.75;;;6.70;99.90;;;;;;5046503;28;20033;-76
2021/12/01 13:18:06;;;;;;;6.28;3.05;;;6.70;99.90;;;;;;5047676;28;20453;-76
2021/12/01 13:20:40;;;;;;;7.25;3.08;;;6.70;99.90;;;;;;5047018;28;20045;-76
2021/12/01 13:23:13;;;;;;;5.15;3.00;;;6.70;99.90;;;;;;5047780;28;20103;-77
2021/12/01 13:25:43;;;;;;;7.78;3.40;;;6.70;99.90;;;;;;5046399;28;20051;-77
2021/12/01 13:28:12;;;;;;;5.18;2.75;;;6.70;99.90;;;;;;5047191;28;20041;-77
2021/12/01 13:30:54;;;;;;;5.15;3.10;;;6.70;99.90;;;;;;5047123;28;20036;-77
2021/12/01 13:33:20;;;;;;;5.07;3.13;;;6.70;99.90;;;;;;5048190;28;20027;-77
2021/12/01 13:35:46;;;;;;;;;;;6.80;99.90;;;;;;5047107;28;20037;-76
2021/12/01 13:38:14;;;;;;;5.25;3.05;;;6.80;99.90;;;;;;5047921;28;19954;-76
2021/12/01 13:40:40;;;;;;;4.93;2.90;;;6.80;99.90;;;;;;5046993;28;20091;-77
2021/12/01 13:43:18;;;;;;;;;;;6.80;99.90;;;;;;5048169;28;20025;-78
2021/12/01 13:45:59;;;;;;;4.55;2.67;;;6.80;99.90;;;;;;5047406;28;19991;-77
2021/12/01 13:48:26;;;;;;;5.60;3.22;;;6.90;99.90;;;;;;5051068;28;20144;-76
2021/12/01 13:51:03;;;;;;;5.80;2.88;;;6.90;99.90;;;;;;5050488;28;20063;-76
2021/12/01 13:53:28;;;;;;;6.78;2.72;;;6.80;99.90;;;;;;5050815;28;20417;-77
2021/12/01 13:55:54;;;;;;;5.88;2.70;;;6.90;99.90;;;;;;5050628;28;20025;-77
2021/12/01 13:58:20;;;;;;;;;;;6.80;99.90;;;;;;5051484;28;20119;-76
2021/12/01 14:00:57;;;;;;;3.67;2.20;;;6.80;99.90;;;;;;5050330;28;19928;-76
2021/12/01 14:03:23;;;;;;;4.50;3.03;;;6.80;99.90;;;;;;5052411;28;20210;-76
2021/12/01 14:05:53;;;;;;;;;;;6.80;99.90;;;;;;5052531;28;20566;-77
2021/12/01 14:08:27;;;;;;;15.35;10.35;;;6.80;99.90;;;;;;5050912;28;19919;-77
2021/12/01 14:11:24;;;;;;;16.67;10.93;;;6.80;99.90;;;;;;5052141;28;20505;-76